Date,TemperatureHighF,TemperatureAvgF,TemperatureLowF,DewpointHighF,DewpointAvgF,DewpointLowF,HumidityHigh,HumidityAvg,HumidityLow,PressureMaxIn,PressureMinIn,WindSpeedMaxMPH,WindSpeedAvgMPH,GustSpeedMaxMPH,PrecipitationSumIn
2013-9-1,95.4,82.8,77.3,77.1,73.8,71.6,88,75,54,29.89,29.78,17,2,17,0.00
2013-9-2,91.3,81.4,75.4,78.2,75.2,73.2,94,82,60,29.91,29.80,14,2,14,0.00
2013-9-3,91.1,78.9,67.6,73.5,68.0,62.1,96,73,44,30.01,29.89,13,3,13,0.00
2013-9-4,87.9,76.0,62.5,70.9,65.8,60.7,96,73,51,30.10,29.99,12,2,12,0.00
2013-9-5,91.3,77.3,63.6,71.0,66.4,61.8,95,72,45,30.14,30.06,12,2,12,0.00
2013-9-6,92.8,78.2,66.5,71.5,67.2,61.7,93,72,38,30.13,30.01,7,1,7,0.00
2013-9-7,96.2,79.2,66.3,74.7,69.0,64.2,94,74,42,30.06,29.93,9,1,9,0.00
2013-9-8,98.2,82.8,68.9,76.7,71.6,66.9,95,72,41,29.97,29.86,9,1,9,0.00
2013-9-9,93.3,81.9,74.0,78.2,74.0,70.7,90,78,54,30.03,29.91,10,1,10,0.04
2013-9-10,97.0,82.1,73.1,77.9,73.4,71.0,94,77,46,30.11,30.00,14,1,14,0.08
2013-9-11,93.7,82.2,73.6,77.3,73.6,71.5,95,77,51,30.15,30.03,13,1,13,0.00
2013-9-12,93.7,81.6,71.5,75.2,72.6,69.6,94,76,50,30.04,29.90,12,1,12,0.00
2013-9-13,85.3,75.6,64.9,72.0,62.2,55.6,93,65,40,30.01,29.92,14,4,14,0.00
2013-9-14,79.0,67.1,56.4,56.8,53.6,50.4,87,65,39,30.09,30.00,14,3,14,0.00
2013-9-15,87.2,68.9,52.2,64.4,56.3,50.1,94,69,33,30.09,30.02,13,1,13,0.00
2013-9-16,92.5,74.9,59.0,68.9,61.9,56.7,94,68,32,30.13,30.06,13,2,13,0.00
2013-9-17,93.0,79.3,66.8,70.2,67.1,64.4,94,70,43,30.14,30.00,8,2,8,0.00
2013-9-18,88.8,81.7,72.8,75.4,72.3,69.4,89,74,60,30.09,29.99,10,4,10,0.00
2013-9-19,92.9,80.7,69.5,73.7,69.9,67.4,95,72,46,30.08,29.93,13,2,13,0.00
2013-9-20,78.8,74.3,70.0,74.8,70.7,67.7,98,89,70,29.96,29.81,10,1,10,1.53
2013-9-21,78.1,69.1,59.0,69.7,61.1,55.1,98,78,48,29.91,29.79,12,4,12,0.11
2013-9-22,79.4,66.4,54.9,59.9,55.8,52.6,95,72,44,29.94,29.85,17,2,17,0.00
2013-9-23,84.8,73.6,54.8,66.3,61.6,52.8,94,69,46,29.95,29.85,12,2,12,0.00
2013-9-24,78.8,70.9,64.6,72.9,68.1,61.6,96,91,81,29.90,29.78,9,1,9,0.02
2013-9-25,84.2,74.7,67.8,73.2,69.1,65.8,97,84,58,29.82,29.75,7,1,7,0.01
2013-9-26,89.5,75.1,63.7,72.8,67.3,62.5,97,79,50,29.97,29.81,10,1,10,0.00
2013-9-27,86.6,73.3,62.5,71.1,65.8,61.0,96,80,52,30.07,29.97,6,1,6,0.00
2013-9-28,84.3,74.8,63.5,65.7,63.1,61.4,94,69,50,30.11,29.99,12,3,12,0.00
2013-9-29,69.5,67.5,65.3,66.1,63.2,60.6,96,87,75,30.03,29.94,6,1,6,0.11
2013-9-30,76.6,69.6,66.0,70.8,67.4,65.1,97,93,82,29.97,29.90,7,1,7,0.05